Garden City Park, New York
Current Conditions -  °F | °C
As of 2:51 PM on Sunday 21 Dec 2014 (Local Time) from KJFK Reporting Station
Overcast Overcast  
Wind Chill: 30°   Ceiling: 1800
Heat Index: 37°   Visibility: 10mi
Dew Point: 27°   Wind: 9mph
Humidity: 67%   Direction: 330°NNW
Pressure: 30.29"   Gusts: NA
Location:  40.7459°N, 73.6798°W
Report Text: KJFK 211951Z 33008KT 10SM BKN018 OVC028 03/M03 A3029 RMK AO2 SLP257 T00281028 $
Loading
Personal Weather Stations






























Interactive Weather Map New forecast layout! Learn more

10-Day Weather Forecast

Advertisements
Track Severe Weather on mobile